sensor_id;sensor_type;location;lat;lon;timestamp;P1;durP1;ratioP1;P2;durP2;ratioP2
1336;SDS011;662;48.814;9.318;2023-04-15T00:01:24;4.53;;;4.10;;
1336;SDS011;662;48.814;9.318;2023-04-15T00:03:52;5.70;;;4.40;;
1336;SDS011;662;48.814;9.318;2023-04-15T00:06:19;5.37;;;4.00;;
1336;SDS011;662;48.814;9.318;2023-04-15T00:08:45;34.10;;;6.37;;
1336;SDS011;662;48.814;9.318;2023-04-15T00:11:11;32.27;;;6.60;;
1336;SDS011;662;48.814;9.318;2023-04-15T00:13:38;30.43;;;6.90;;
1336;SDS011;662;48.814;9.318;2023-04-15T00:16:04;14.27;;;5.60;;
1336;SDS011;662;48.814;9.318;2023-04-15T00:18:31;8.37;;;4.43;;
1336;SDS011;662;48.814;9.318;2023-04-15T00:21:00;11.80;;;5.10;;
1336;SDS011;662;48.814;9.318;2023-04-15T00:23:26;8.43;;;4.47;;
1336;SDS011;662;48.814;9.318;2023-04-15T00:25:52;6.47;;;4.63;;
1336;SDS011;662;48.814;9.318;2023-04-15T00:28:18;7.43;;;3.70;;
1336;SDS011;662;48.814;9.318;2023-04-15T00:30:43;6.40;;;4.20;;
1336;SDS011;662;48.814;9.318;2023-04-15T00:33:09;6.43;;;3.50;;
1336;SDS011;662;48.814;9.318;2023-04-15T00:35:35;6.23;;;4.57;;
1336;SDS011;662;48.814;9.318;2023-04-15T00:38:01;8.73;;;4.60;;
1336;SDS011;662;48.814;9.318;2023-04-15T00:40:31;12.33;;;4.87;;
1336;SDS011;662;48.814;9.318;2023-04-15T00:42:57;43.60;;;6.80;;
1336;SDS011;662;48.814;9.318;2023-04-15T00:45:24;27.60;;;6.50;;
1336;SDS011;662;48.814;9.318;2023-04-15T00:47:52;17.30;;;5.37;;
1336;SDS011;662;48.814;9.318;2023-04-15T00:50:18;9.23;;;4.70;;
1336;SDS011;662;48.814;9.318;2023-04-15T00:52:43;5.30;;;4.80;;
1336;SDS011;662;48.814;9.318;2023-04-15T00:55:09;5.00;;;4.47;;
1336;SDS011;662;48.814;9.318;2023-04-15T00:57:35;4.40;;;4.00;;
1336;SDS011;662;48.814;9.318;2023-04-15T01:00:01;7.23;;;4.40;;
1336;SDS011;662;48.814;9.318;2023-04-15T01:02:29;5.53;;;3.90;;
1336;SDS011;662;48.814;9.318;2023-04-15T01:04:56;7.20;;;4.23;;
1336;SDS011;662;48.814;9.318;2023-04-15T01:07:22;7.20;;;4.20;;
1336;SDS011;662;48.814;9.318;2023-04-15T01:09:47;6.13;;;4.20;;
1336;SDS011;662;48.814;9.318;2023-04-15T01:12:13;8.20;;;4.67;;
1336;SDS011;662;48.814;9.318;2023-04-15T01:14:40;6.57;;;4.47;;
1336;SDS011;662;48.814;9.318;2023-04-15T01:17:06;7.43;;;4.13;;
1336;SDS011;662;48.814;9.318;2023-04-15T01:19:32;9.80;;;4.33;;
1336;SDS011;662;48.814;9.318;2023-04-15T01:22:01;8.77;;;4.47;;
1336;SDS011;662;48.814;9.318;2023-04-15T01:24:27;7.73;;;4.37;;
1336;SDS011;662;48.814;9.318;2023-04-15T01:26:55;6.67;;;4.70;;
1336;SDS011;662;48.814;9.318;2023-04-15T01:29:21;9.63;;;5.17;;
1336;SDS011;662;48.814;9.318;2023-04-15T01:31:48;7.33;;;5.17;;
1336;SDS011;662;48.814;9.318;2023-04-15T01:34:19;6.50;;;4.30;;
1336;SDS011;662;48.814;9.318;2023-04-15T01:36:44;10.43;;;5.40;;
1336;SDS011;662;48.814;9.318;2023-04-15T01:39:10;9.10;;;4.63;;
1336;SDS011;662;48.814;9.318;2023-04-15T01:41:36;8.27;;;5.37;;
1336;SDS011;662;48.814;9.318;2023-04-15T01:44:02;7.67;;;5.23;;
1336;SDS011;662;48.814;9.318;2023-04-15T01:46:27;7.47;;;4.77;;
1336;SDS011;662;48.814;9.318;2023-04-15T01:48:53;5.63;;;4.80;;
1336;SDS011;662;48.814;9.318;2023-04-15T01:51:19;6.07;;;4.63;;
1336;SDS011;662;48.814;9.318;2023-04-15T01:53:44;5.30;;;4.60;;
1336;SDS011;662;48.814;9.318;2023-04-15T01:56:10;6.10;;;4.97;;
1336;SDS011;662;48.814;9.318;2023-04-15T01:58:36;7.00;;;5.03;;
1336;SDS011;662;48.814;9.318;2023-04-15T02:01:02;7.63;;;4.43;;
1336;SDS011;662;48.814;9.318;2023-04-15T02:03:28;6.43;;;5.00;;
1336;SDS011;662;48.814;9.318;2023-04-15T02:05:54;5.83;;;4.60;;
1336;SDS011;662;48.814;9.318;2023-04-15T02:08:20;7.33;;;5.00;;
1336;SDS011;662;48.814;9.318;2023-04-15T02:10:46;5.33;;;4.83;;
1336;SDS011;662;48.814;9.318;2023-04-15T02:13:12;7.70;;;5.50;;
1336;SDS011;662;48.814;9.318;2023-04-15T02:15:37;6.07;;;5.50;;
1336;SDS011;662;48.814;9.318;2023-04-15T02:18:03;7.63;;;5.90;;
1336;SDS011;662;48.814;9.318;2023-04-15T02:20:29;6.47;;;5.57;;
1336;SDS011;662;48.814;9.318;2023-04-15T02:22:55;6.50;;;4.67;;
1336;SDS011;662;48.814;9.318;2023-04-15T02:25:21;5.10;;;4.43;;
1336;SDS011;662;48.814;9.318;2023-04-15T02:27:47;8.93;;;4.37;;
1336;SDS011;662;48.814;9.318;2023-04-15T02:30:12;11.87;;;5.30;;
1336;SDS011;662;48.814;9.318;2023-04-15T02:32:38;8.57;;;5.17;;
1336;SDS011;662;48.814;9.318;2023-04-15T02:35:07;11.93;;;5.20;;
1336;SDS011;662;48.814;9.318;2023-04-15T02:37:34;12.50;;;5.43;;
1336;SDS011;662;48.814;9.318;2023-04-15T02:40:13;12.60;;;5.23;;
1336;SDS011;662;48.814;9.318;2023-04-15T02:42:42;18.77;;;5.60;;
1336;SDS011;662;48.814;9.318;2023-04-15T02:45:08;7.07;;;5.10;;
1336;SDS011;662;48.814;9.318;2023-04-15T02:47:36;12.13;;;6.17;;
1336;SDS011;662;48.814;9.318;2023-04-15T02:50:03;17.70;;;6.20;;
1336;SDS011;662;48.814;9.318;2023-04-15T02:52:31;9.93;;;4.80;;
1336;SDS011;662;48.814;9.318;2023-04-15T02:54:57;9.57;;;6.03;;
1336;SDS011;662;48.814;9.318;2023-04-15T02:57:26;12.77;;;5.00;;
1336;SDS011;662;48.814;9.318;2023-04-15T02:59:53;6.80;;;5.07;;
1336;SDS011;662;48.814;9.318;2023-04-15T03:02:19;8.23;;;4.93;;
1336;SDS011;662;48.814;9.318;2023-04-15T03:04:45;6.20;;;4.47;;
1336;SDS011;662;48.814;9.318;2023-04-15T03:07:10;4.73;;;4.33;;
1336;SDS011;662;48.814;9.318;2023-04-15T03:09:36;6.20;;;4.50;;
1336;SDS011;662;48.814;9.318;2023-04-15T03:12:04;6.43;;;4.73;;
1336;SDS011;662;48.814;9.318;2023-04-15T03:14:30;5.93;;;5.00;;
1336;SDS011;662;48.814;9.318;2023-04-15T03:16:55;6.43;;;5.70;;
1336;SDS011;662;48.814;9.318;2023-04-15T03:19:23;8.37;;;6.00;;
1336;SDS011;662;48.814;9.318;2023-04-15T03:21:49;6.70;;;6.03;;
1336;SDS011;662;48.814;9.318;2023-04-15T03:24:14;7.43;;;6.37;;
1336;SDS011;662;48.814;9.318;2023-04-15T03:26:40;7.07;;;5.30;;
1336;SDS011;662;48.814;9.318;2023-04-15T03:29:06;13.43;;;6.43;;
1336;SDS011;662;48.814;9.318;2023-04-15T03:31:31;10.00;;;5.60;;
1336;SDS011;662;48.814;9.318;2023-04-15T03:33:57;9.80;;;6.03;;
1336;SDS011;662;48.814;9.318;2023-04-15T03:36:23;5.87;;;4.83;;
1336;SDS011;662;48.814;9.318;2023-04-15T03:38:48;9.13;;;5.60;;
1336;SDS011;662;48.814;9.318;2023-04-15T03:41:14;6.13;;;4.43;;
1336;SDS011;662;48.814;9.318;2023-04-15T03:43:39;9.47;;;4.17;;
1336;SDS011;662;48.814;9.318;2023-04-15T03:46:05;6.20;;;4.60;;
1336;SDS011;662;48.814;9.318;2023-04-15T03:48:31;6.23;;;4.47;;
1336;SDS011;662;48.814;9.318;2023-04-15T03:50:56;4.30;;;3.90;;
1336;SDS011;662;48.814;9.318;2023-04-15T03:53:22;4.53;;;4.13;;
1336;SDS011;662;48.814;9.318;2023-04-15T03:55:48;5.57;;;4.70;;
1336;SDS011;662;48.814;9.318;2023-04-15T03:58:14;5.30;;;4.20;;
1336;SDS011;662;48.814;9.318;2023-04-15T04:00:40;5.53;;;4.50;;
1336;SDS011;662;48.814;9.318;2023-04-15T04:03:06;5.57;;;3.90;;
1336;SDS011;662;48.814;9.318;2023-04-15T04:05:32;7.73;;;4.10;;
1336;SDS011;662;48.814;9.318;2023-04-15T04:07:58;5.80;;;4.77;;
1336;SDS011;662;48.814;9.318;2023-04-15T04:10:23;4.70;;;4.30;;
1336;SDS011;662;48.814;9.318;2023-04-15T04:12:49;5.03;;;4.53;;
1336;SDS011;662;48.814;9.318;2023-04-15T04:15:15;6.83;;;4.53;;
1336;SDS011;662;48.814;9.318;2023-04-15T04:17:41;4.87;;;3.63;;
1336;SDS011;662;48.814;9.318;2023-04-15T04:20:06;6.63;;;4.93;;
1336;SDS011;662;48.814;9.318;2023-04-15T04:22:38;4.87;;;4.07;;
1336;SDS011;662;48.814;9.318;2023-04-15T04:25:05;9.77;;;4.70;;
1336;SDS011;662;48.814;9.318;2023-04-15T04:27:32;5.00;;;4.47;;
1336;SDS011;662;48.814;9.318;2023-04-15T04:29:58;7.67;;;4.60;;
1336;SDS011;662;48.814;9.318;2023-04-15T04:32:24;5.90;;;4.67;;
1336;SDS011;662;48.814;9.318;2023-04-15T04:34:50;9.13;;;5.23;;
1336;SDS011;662;48.814;9.318;2023-04-15T04:37:15;9.00;;;4.53;;
1336;SDS011;662;48.814;9.318;2023-04-15T04:39:41;8.23;;;5.53;;
1336;SDS011;662;48.814;9.318;2023-04-15T04:42:06;7.27;;;4.40;;
1336;SDS011;662;48.814;9.318;2023-04-15T04:44:32;12.40;;;5.20;;
1336;SDS011;662;48.814;9.318;2023-04-15T04:46:58;12.80;;;5.47;;
1336;SDS011;662;48.814;9.318;2023-04-15T04:49:23;7.27;;;4.50;;
1336;SDS011;662;48.814;9.318;2023-04-15T04:51:49;8.83;;;5.17;;
1336;SDS011;662;48.814;9.318;2023-04-15T04:54:15;5.77;;;5.17;;
1336;SDS011;662;48.814;9.318;2023-04-15T04:56:41;6.43;;;5.20;;
1336;SDS011;662;48.814;9.318;2023-04-15T04:59:07;8.00;;;4.77;;
1336;SDS011;662;48.814;9.318;2023-04-15T05:01:33;5.27;;;4.77;;
1336;SDS011;662;48.814;9.318;2023-04-15T05:03:59;5.87;;;4.60;;
1336;SDS011;662;48.814;9.318;2023-04-15T05:06:24;5.80;;;5.30;;
1336;SDS011;662;48.814;9.318;2023-04-15T05:08:50;4.67;;;4.27;;
1336;SDS011;662;48.814;9.318;2023-04-15T05:11:16;8.23;;;5.90;;
1336;SDS011;662;48.814;9.318;2023-04-15T05:13:41;7.73;;;5.33;;
1336;SDS011;662;48.814;9.318;2023-04-15T05:16:07;6.73;;;5.53;;
1336;SDS011;662;48.814;9.318;2023-04-15T05:18:33;6.83;;;5.90;;
1336;SDS011;662;48.814;9.318;2023-04-15T05:20:59;6.37;;;4.90;;
1336;SDS011;662;48.814;9.318;2023-04-15T05:23:24;6.57;;;4.93;;
1336;SDS011;662;48.814;9.318;2023-04-15T05:25:50;6.43;;;5.60;;
1336;SDS011;662;48.814;9.318;2023-04-15T05:28:19;9.27;;;5.17;;
1336;SDS011;662;48.814;9.318;2023-04-15T05:30:45;9.77;;;5.00;;
1336;SDS011;662;48.814;9.318;2023-04-15T05:33:10;18.77;;;6.77;;
1336;SDS011;662;48.814;9.318;2023-04-15T05:35:36;18.13;;;5.83;;
1336;SDS011;662;48.814;9.318;2023-04-15T05:38:02;9.60;;;6.00;;
1336;SDS011;662;48.814;9.318;2023-04-15T05:40:27;11.00;;;5.67;;
1336;SDS011;662;48.814;9.318;2023-04-15T05:42:54;6.70;;;5.67;;
1336;SDS011;662;48.814;9.318;2023-04-15T05:45:20;10.00;;;6.10;;
1336;SDS011;662;48.814;9.318;2023-04-15T05:47:46;10.33;;;6.10;;
1336;SDS011;662;48.814;9.318;2023-04-15T05:50:14;17.13;;;6.27;;
1336;SDS011;662;48.814;9.318;2023-04-15T05:52:40;6.40;;;5.10;;
1336;SDS011;662;48.814;9.318;2023-04-15T05:55:05;8.30;;;5.93;;
1336;SDS011;662;48.814;9.318;2023-04-15T05:57:31;8.57;;;6.10;;
1336;SDS011;662;48.814;9.318;2023-04-15T05:59:57;8.10;;;5.70;;
1336;SDS011;662;48.814;9.318;2023-04-15T06:02:23;11.23;;;5.57;;
1336;SDS011;662;48.814;9.318;2023-04-15T06:04:48;7.40;;;5.77;;
1336;SDS011;662;48.814;9.318;2023-04-15T06:07:14;7.67;;;6.13;;
1336;SDS011;662;48.814;9.318;2023-04-15T06:09:40;8.30;;;6.43;;
1336;SDS011;662;48.814;9.318;2023-04-15T06:12:06;6.90;;;5.43;;
1336;SDS011;662;48.814;9.318;2023-04-15T06:14:36;7.13;;;5.10;;
1336;SDS011;662;48.814;9.318;2023-04-15T06:17:02;6.10;;;4.80;;
1336;SDS011;662;48.814;9.318;2023-04-15T06:19:28;9.40;;;5.97;;
1336;SDS011;662;48.814;9.318;2023-04-15T06:21:53;7.10;;;5.00;;
1336;SDS011;662;48.814;9.318;2023-04-15T06:24:19;5.90;;;5.13;;
1336;SDS011;662;48.814;9.318;2023-04-15T06:26:45;10.30;;;6.07;;
1336;SDS011;662;48.814;9.318;2023-04-15T06:29:11;7.20;;;5.47;;
1336;SDS011;662;48.814;9.318;2023-04-15T06:31:36;6.47;;;5.20;;
1336;SDS011;662;48.814;9.318;2023-04-15T06:34:02;10.77;;;5.00;;
1336;SDS011;662;48.814;9.318;2023-04-15T06:36:27;9.33;;;5.27;;
1336;SDS011;662;48.814;9.318;2023-04-15T06:38:53;7.90;;;5.73;;
1336;SDS011;662;48.814;9.318;2023-04-15T06:41:20;10.00;;;6.00;;
1336;SDS011;662;48.814;9.318;2023-04-15T06:43:46;6.07;;;5.23;;
1336;SDS011;662;48.814;9.318;2023-04-15T06:46:11;5.57;;;4.70;;
1336;SDS011;662;48.814;9.318;2023-04-15T06:48:37;6.90;;;5.13;;
1336;SDS011;662;48.814;9.318;2023-04-15T06:51:03;7.57;;;5.87;;
1336;SDS011;662;48.814;9.318;2023-04-15T06:53:28;6.10;;;5.50;;
1336;SDS011;662;48.814;9.318;2023-04-15T06:55:54;8.93;;;5.40;;
1336;SDS011;662;48.814;9.318;2023-04-15T06:58:20;6.57;;;5.90;;
1336;SDS011;662;48.814;9.318;2023-04-15T07:00:46;8.77;;;5.47;;
1336;SDS011;662;48.814;9.318;2023-04-15T07:03:11;6.77;;;5.17;;
1336;SDS011;662;48.814;9.318;2023-04-15T07:05:37;7.47;;;5.50;;
1336;SDS011;662;48.814;9.318;2023-04-15T07:08:03;6.17;;;5.17;;
1336;SDS011;662;48.814;9.318;2023-04-15T07:10:30;9.17;;;5.60;;
1336;SDS011;662;48.814;9.318;2023-04-15T07:12:57;6.13;;;5.50;;
1336;SDS011;662;48.814;9.318;2023-04-15T07:15:23;10.00;;;6.30;;
1336;SDS011;662;48.814;9.318;2023-04-15T07:17:49;7.60;;;5.30;;
1336;SDS011;662;48.814;9.318;2023-04-15T07:20:15;9.20;;;5.67;;
1336;SDS011;662;48.814;9.318;2023-04-15T07:22:41;7.73;;;5.97;;
1336;SDS011;662;48.814;9.318;2023-04-15T07:25:06;7.90;;;5.57;;
1336;SDS011;662;48.814;9.318;2023-04-15T07:27:33;8.50;;;4.90;;
1336;SDS011;662;48.814;9.318;2023-04-15T07:29:59;8.73;;;5.57;;
1336;SDS011;662;48.814;9.318;2023-04-15T07:32:24;6.10;;;5.00;;
1336;SDS011;662;48.814;9.318;2023-04-15T07:34:50;11.87;;;5.23;;
1336;SDS011;662;48.814;9.318;2023-04-15T07:37:16;9.90;;;5.70;;
1336;SDS011;662;48.814;9.318;2023-04-15T07:39:43;8.53;;;4.93;;
1336;SDS011;662;48.814;9.318;2023-04-15T07:42:08;7.27;;;5.83;;
1336;SDS011;662;48.814;9.318;2023-04-15T07:44:34;5.90;;;5.30;;
1336;SDS011;662;48.814;9.318;2023-04-15T07:47:00;13.10;;;5.40;;
1336;SDS011;662;48.814;9.318;2023-04-15T07:49:27;10.20;;;5.63;;
1336;SDS011;662;48.814;9.318;2023-04-15T07:51:52;7.50;;;5.60;;
1336;SDS011;662;48.814;9.318;2023-04-15T07:54:19;13.90;;;6.50;;
1336;SDS011;662;48.814;9.318;2023-04-15T07:56:44;7.17;;;5.30;;
1336;SDS011;662;48.814;9.318;2023-04-15T07:59:10;20.70;;;6.67;;
1336;SDS011;662;48.814;9.318;2023-04-15T08:01:36;27.27;;;7.77;;
1336;SDS011;662;48.814;9.318;2023-04-15T08:04:02;11.00;;;6.30;;
1336;SDS011;662;48.814;9.318;2023-04-15T08:06:28;8.70;;;4.87;;
1336;SDS011;662;48.814;9.318;2023-04-15T08:08:54;8.10;;;5.60;;
1336;SDS011;662;48.814;9.318;2023-04-15T08:11:20;16.60;;;6.20;;
1336;SDS011;662;48.814;9.318;2023-04-15T08:13:47;8.50;;;5.43;;
1336;SDS011;662;48.814;9.318;2023-04-15T08:16:15;7.57;;;5.00;;
1336;SDS011;662;48.814;9.318;2023-04-15T08:18:46;5.60;;;4.87;;
1336;SDS011;662;48.814;9.318;2023-04-15T08:21:13;5.93;;;5.33;;
1336;SDS011;662;48.814;9.318;2023-04-15T08:23:39;7.73;;;4.80;;
1336;SDS011;662;48.814;9.318;2023-04-15T08:26:05;13.10;;;6.30;;
1336;SDS011;662;48.814;9.318;2023-04-15T08:28:31;7.03;;;5.40;;
1336;SDS011;662;48.814;9.318;2023-04-15T08:30:57;13.57;;;6.60;;
1336;SDS011;662;48.814;9.318;2023-04-15T08:33:23;10.77;;;6.07;;
1336;SDS011;662;48.814;9.318;2023-04-15T08:35:48;11.90;;;5.40;;
1336;SDS011;662;48.814;9.318;2023-04-15T08:38:14;9.83;;;5.30;;
1336;SDS011;662;48.814;9.318;2023-04-15T08:40:40;7.70;;;5.50;;
1336;SDS011;662;48.814;9.318;2023-04-15T08:43:12;6.13;;;4.90;;
1336;SDS011;662;48.814;9.318;2023-04-15T08:45:43;7.03;;;5.00;;
1336;SDS011;662;48.814;9.318;2023-04-15T08:48:12;7.30;;;4.67;;
1336;SDS011;662;48.814;9.318;2023-04-15T08:50:42;6.43;;;4.90;;
1336;SDS011;662;48.814;9.318;2023-04-15T08:53:09;8.67;;;4.50;;
1336;SDS011;662;48.814;9.318;2023-04-15T08:55:35;7.37;;;4.40;;
1336;SDS011;662;48.814;9.318;2023-04-15T08:58:09;13.13;;;5.47;;
1336;SDS011;662;48.814;9.318;2023-04-15T09:00:38;9.80;;;4.83;;
1336;SDS011;662;48.814;9.318;2023-04-15T09:03:05;6.53;;;4.87;;
1336;SDS011;662;48.814;9.318;2023-04-15T09:05:32;8.80;;;5.33;;
1336;SDS011;662;48.814;9.318;2023-04-15T09:07:58;13.27;;;8.77;;
1336;SDS011;662;48.814;9.318;2023-04-15T09:10:24;10.23;;;6.43;;
1336;SDS011;662;48.814;9.318;2023-04-15T09:12:52;11.23;;;6.53;;
1336;SDS011;662;48.814;9.318;2023-04-15T09:15:18;7.60;;;5.60;;
1336;SDS011;662;48.814;9.318;2023-04-15T09:17:45;20.13;;;5.57;;
1336;SDS011;662;48.814;9.318;2023-04-15T09:22:39;6.63;;;3.97;;
1336;SDS011;662;48.814;9.318;2023-04-15T09:27:49;4.33;;;3.37;;
1336;SDS011;662;48.814;9.318;2023-04-15T09:30:16;5.37;;;3.53;;
1336;SDS011;662;48.814;9.318;2023-04-15T09:32:49;5.80;;;4.67;;
1336;SDS011;662;48.814;9.318;2023-04-15T09:35:19;11.43;;;7.43;;
1336;SDS011;662;48.814;9.318;2023-04-15T09:37:46;7.63;;;5.70;;
1336;SDS011;662;48.814;9.318;2023-04-15T09:40:12;5.70;;;4.60;;
1336;SDS011;662;48.814;9.318;2023-04-15T09:42:56;6.73;;;4.10;;
1336;SDS011;662;48.814;9.318;2023-04-15T09:45:32;8.40;;;4.90;;
1336;SDS011;662;48.814;9.318;2023-04-15T09:47:59;8.40;;;5.20;;
1336;SDS011;662;48.814;9.318;2023-04-15T09:50:45;7.43;;;4.40;;
1336;SDS011;662;48.814;9.318;2023-04-15T09:53:16;4.83;;;3.43;;
1336;SDS011;662;48.814;9.318;2023-04-15T09:55:53;4.90;;;3.70;;
1336;SDS011;662;48.814;9.318;2023-04-15T09:58:23;6.53;;;4.50;;
1336;SDS011;662;48.814;9.318;2023-04-15T10:00:51;4.07;;;3.73;;
1336;SDS011;662;48.814;9.318;2023-04-15T10:03:21;6.57;;;4.13;;
1336;SDS011;662;48.814;9.318;2023-04-15T10:05:49;7.50;;;6.10;;
1336;SDS011;662;48.814;9.318;2023-04-15T10:08:17;5.90;;;5.23;;
1336;SDS011;662;48.814;9.318;2023-04-15T10:10:45;4.27;;;3.73;;
1336;SDS011;662;48.814;9.318;2023-04-15T10:13:16;10.03;;;3.93;;
1336;SDS011;662;48.814;9.318;2023-04-15T10:15:43;5.80;;;4.50;;
1336;SDS011;662;48.814;9.318;2023-04-15T10:18:13;7.73;;;3.70;;
1336;SDS011;662;48.814;9.318;2023-04-15T10:20:41;5.03;;;3.97;;
1336;SDS011;662;48.814;9.318;2023-04-15T10:23:09;4.83;;;3.70;;
1336;SDS011;662;48.814;9.318;2023-04-15T10:25:36;6.73;;;3.93;;
1336;SDS011;662;48.814;9.318;2023-04-15T10:28:02;6.80;;;3.23;;
1336;SDS011;662;48.814;9.318;2023-04-15T10:30:32;3.97;;;3.17;;
1336;SDS011;662;48.814;9.318;2023-04-15T10:32:59;5.43;;;3.50;;
1336;SDS011;662;48.814;9.318;2023-04-15T10:35:27;4.07;;;3.53;;
1336;SDS011;662;48.814;9.318;2023-04-15T10:37:54;3.47;;;3.23;;
1336;SDS011;662;48.814;9.318;2023-04-15T10:42:54;6.60;;;3.40;;
1336;SDS011;662;48.814;9.318;2023-04-15T10:45:20;7.37;;;3.40;;
1336;SDS011;662;48.814;9.318;2023-04-15T10:47:55;6.30;;;3.70;;
1336;SDS011;662;48.814;9.318;2023-04-15T10:50:24;3.80;;;3.33;;
1336;SDS011;662;48.814;9.318;2023-04-15T10:52:50;4.93;;;4.03;;
1336;SDS011;662;48.814;9.318;2023-04-15T10:57:48;8.50;;;3.80;;
1336;SDS011;662;48.814;9.318;2023-04-15T11:00:20;3.63;;;3.33;;
1336;SDS011;662;48.814;9.318;2023-04-15T11:05:22;7.10;;;4.27;;
1336;SDS011;662;48.814;9.318;2023-04-15T11:08:17;4.50;;;3.70;;
1336;SDS011;662;48.814;9.318;2023-04-15T11:15:42;3.93;;;3.50;;
1336;SDS011;662;48.814;9.318;2023-04-15T11:18:19;4.60;;;3.80;;
1336;SDS011;662;48.814;9.318;2023-04-15T11:23:18;5.83;;;4.00;;
1336;SDS011;662;48.814;9.318;2023-04-15T11:25:53;4.80;;;4.00;;
1336;SDS011;662;48.814;9.318;2023-04-15T11:28:19;5.50;;;4.17;;
1336;SDS011;662;48.814;9.318;2023-04-15T11:30:45;7.33;;;5.33;;
1336;SDS011;662;48.814;9.318;2023-04-15T11:33:11;6.80;;;4.50;;
1336;SDS011;662;48.814;9.318;2023-04-15T11:35:39;7.13;;;5.10;;
1336;SDS011;662;48.814;9.318;2023-04-15T11:38:10;12.47;;;5.60;;
1336;SDS011;662;48.814;9.318;2023-04-15T11:40:36;6.80;;;4.53;;
1336;SDS011;662;48.814;9.318;2023-04-15T11:43:03;6.33;;;4.60;;
1336;SDS011;662;48.814;9.318;2023-04-15T11:45:32;10.20;;;5.70;;
1336;SDS011;662;48.814;9.318;2023-04-15T11:48:05;8.00;;;5.50;;
1336;SDS011;662;48.814;9.318;2023-04-15T11:50:34;5.90;;;5.23;;
1336;SDS011;662;48.814;9.318;2023-04-15T11:53:04;6.53;;;4.77;;
1336;SDS011;662;48.814;9.318;2023-04-15T11:55:30;6.43;;;5.40;;
1336;SDS011;662;48.814;9.318;2023-04-15T11:58:17;5.33;;;4.83;;
1336;SDS011;662;48.814;9.318;2023-04-15T12:00:52;6.67;;;5.27;;
1336;SDS011;662;48.814;9.318;2023-04-15T12:14:05;3.37;;;3.03;;
1336;SDS011;662;48.814;9.318;2023-04-15T12:16:33;4.90;;;2.97;;
1336;SDS011;662;48.814;9.318;2023-04-15T12:19:03;3.13;;;2.83;;
1336;SDS011;662;48.814;9.318;2023-04-15T12:21:36;5.27;;;3.80;;
1336;SDS011;662;48.814;9.318;2023-04-15T12:24:03;5.77;;;4.97;;
1336;SDS011;662;48.814;9.318;2023-04-15T12:26:35;4.17;;;3.60;;
1336;SDS011;662;48.814;9.318;2023-04-15T12:29:07;4.13;;;3.43;;
1336;SDS011;662;48.814;9.318;2023-04-15T12:31:36;4.00;;;3.50;;
1336;SDS011;662;48.814;9.318;2023-04-15T12:34:10;4.40;;;3.23;;
1336;SDS011;662;48.814;9.318;2023-04-15T12:36:36;4.30;;;3.90;;
1336;SDS011;662;48.814;9.318;2023-04-15T12:39:05;6.23;;;3.57;;
1336;SDS011;662;48.814;9.318;2023-04-15T12:41:31;4.73;;;3.60;;
1336;SDS011;662;48.814;9.318;2023-04-15T12:43:57;5.00;;;4.23;;
1336;SDS011;662;48.814;9.318;2023-04-15T12:46:24;6.47;;;4.53;;
1336;SDS011;662;48.814;9.318;2023-04-15T12:48:51;6.47;;;4.37;;
1336;SDS011;662;48.814;9.318;2023-04-15T12:51:17;4.70;;;3.97;;
1336;SDS011;662;48.814;9.318;2023-04-15T12:53:45;4.20;;;3.80;;
1336;SDS011;662;48.814;9.318;2023-04-15T12:56:11;4.80;;;3.70;;
1336;SDS011;662;48.814;9.318;2023-04-15T12:58:37;4.07;;;3.67;;
1336;SDS011;662;48.814;9.318;2023-04-15T13:01:03;3.93;;;3.23;;
1336;SDS011;662;48.814;9.318;2023-04-15T13:03:29;4.20;;;3.10;;
1336;SDS011;662;48.814;9.318;2023-04-15T13:05:54;4.10;;;3.23;;
1336;SDS011;662;48.814;9.318;2023-04-15T13:08:21;3.50;;;3.00;;
1336;SDS011;662;48.814;9.318;2023-04-15T13:10:47;3.07;;;2.87;;
1336;SDS011;662;48.814;9.318;2023-04-15T13:13:13;3.13;;;2.87;;
1336;SDS011;662;48.814;9.318;2023-04-15T13:15:38;4.40;;;3.10;;
1336;SDS011;662;48.814;9.318;2023-04-15T13:18:05;2.77;;;2.57;;
1336;SDS011;662;48.814;9.318;2023-04-15T13:20:31;3.50;;;2.30;;
1336;SDS011;662;48.814;9.318;2023-04-15T13:22:57;5.90;;;3.30;;
1336;SDS011;662;48.814;9.318;2023-04-15T13:25:22;3.03;;;2.73;;
1336;SDS011;662;48.814;9.318;2023-04-15T13:27:48;3.13;;;2.70;;
1336;SDS011;662;48.814;9.318;2023-04-15T13:30:14;5.00;;;2.83;;
1336;SDS011;662;48.814;9.318;2023-04-15T13:32:40;5.03;;;2.40;;
1336;SDS011;662;48.814;9.318;2023-04-15T13:35:06;3.73;;;2.10;;
1336;SDS011;662;48.814;9.318;2023-04-15T13:37:32;4.00;;;2.40;;
1336;SDS011;662;48.814;9.318;2023-04-15T13:39:57;3.90;;;2.10;;
1336;SDS011;662;48.814;9.318;2023-04-15T13:42:23;4.10;;;2.60;;
1336;SDS011;662;48.814;9.318;2023-04-15T13:44:49;5.50;;;2.70;;
1336;SDS011;662;48.814;9.318;2023-04-15T13:47:16;4.40;;;2.40;;
1336;SDS011;662;48.814;9.318;2023-04-15T13:49:43;2.40;;;2.20;;
1336;SDS011;662;48.814;9.318;2023-04-15T13:52:09;3.70;;;2.60;;
1336;SDS011;662;48.814;9.318;2023-04-15T13:54:36;5.07;;;2.23;;
1336;SDS011;662;48.814;9.318;2023-04-15T13:57:01;3.93;;;2.00;;
1336;SDS011;662;48.814;9.318;2023-04-15T13:59:27;2.53;;;2.13;;
1336;SDS011;662;48.814;9.318;2023-04-15T14:01:53;2.70;;;2.13;;
1336;SDS011;662;48.814;9.318;2023-04-15T14:04:19;2.47;;;2.27;;
1336;SDS011;662;48.814;9.318;2023-04-15T14:06:44;2.10;;;1.90;;
1336;SDS011;662;48.814;9.318;2023-04-15T14:09:10;2.27;;;1.40;;
1336;SDS011;662;48.814;9.318;2023-04-15T14:11:39;1.20;;;1.10;;
1336;SDS011;662;48.814;9.318;2023-04-15T14:14:04;2.60;;;1.37;;
1336;SDS011;662;48.814;9.318;2023-04-15T14:16:33;2.87;;;1.60;;
1336;SDS011;662;48.814;9.318;2023-04-15T14:19:00;1.70;;;1.47;;
1336;SDS011;662;48.814;9.318;2023-04-15T14:21:26;3.73;;;3.10;;
1336;SDS011;662;48.814;9.318;2023-04-15T14:23:56;2.70;;;2.50;;
1336;SDS011;662;48.814;9.318;2023-04-15T14:26:22;4.00;;;2.17;;
1336;SDS011;662;48.814;9.318;2023-04-15T14:28:47;2.20;;;1.90;;
1336;SDS011;662;48.814;9.318;2023-04-15T14:31:13;2.93;;;1.80;;
1336;SDS011;662;48.814;9.318;2023-04-15T14:33:39;2.10;;;1.70;;
1336;SDS011;662;48.814;9.318;2023-04-15T14:36:05;3.03;;;1.83;;
1336;SDS011;662;48.814;9.318;2023-04-15T14:38:35;2.53;;;1.50;;
1336;SDS011;662;48.814;9.318;2023-04-15T14:41:05;2.50;;;1.67;;
1336;SDS011;662;48.814;9.318;2023-04-15T14:43:32;5.00;;;1.60;;
1336;SDS011;662;48.814;9.318;2023-04-15T14:46:02;1.90;;;1.60;;
1336;SDS011;662;48.814;9.318;2023-04-15T14:48:28;3.23;;;1.63;;
1336;SDS011;662;48.814;9.318;2023-04-15T14:50:55;4.10;;;1.80;;
1336;SDS011;662;48.814;9.318;2023-04-15T14:53:23;1.90;;;1.60;;
1336;SDS011;662;48.814;9.318;2023-04-15T14:55:50;3.17;;;1.73;;
1336;SDS011;662;48.814;9.318;2023-04-15T14:58:16;3.90;;;1.93;;
1336;SDS011;662;48.814;9.318;2023-04-15T15:00:42;1.60;;;1.40;;
1336;SDS011;662;48.814;9.318;2023-04-15T15:03:09;3.27;;;1.67;;
1336;SDS011;662;48.814;9.318;2023-04-15T15:05:39;2.40;;;1.70;;
1336;SDS011;662;48.814;9.318;2023-04-15T15:08:11;2.20;;;1.70;;
1336;SDS011;662;48.814;9.318;2023-04-15T15:10:38;1.87;;;1.53;;
1336;SDS011;662;48.814;9.318;2023-04-15T15:13:05;1.70;;;1.60;;
1336;SDS011;662;48.814;9.318;2023-04-15T15:15:32;2.10;;;1.50;;
1336;SDS011;662;48.814;9.318;2023-04-15T15:17:59;2.00;;;1.70;;
1336;SDS011;662;48.814;9.318;2023-04-15T15:20:25;2.57;;;1.90;;
1336;SDS011;662;48.814;9.318;2023-04-15T15:22:51;2.70;;;1.97;;
1336;SDS011;662;48.814;9.318;2023-04-15T15:25:17;2.77;;;1.73;;
1336;SDS011;662;48.814;9.318;2023-04-15T15:27:43;2.87;;;2.10;;
1336;SDS011;662;48.814;9.318;2023-04-15T15:30:09;2.37;;;1.60;;
1336;SDS011;662;48.814;9.318;2023-04-15T15:32:37;3.60;;;1.97;;
1336;SDS011;662;48.814;9.318;2023-04-15T15:35:03;1.73;;;1.63;;
1336;SDS011;662;48.814;9.318;2023-04-15T15:37:29;2.60;;;2.13;;
1336;SDS011;662;48.814;9.318;2023-04-15T15:39:55;1.50;;;1.40;;
1336;SDS011;662;48.814;9.318;2023-04-15T15:42:21;3.00;;;2.10;;
1336;SDS011;662;48.814;9.318;2023-04-15T15:44:48;2.30;;;1.87;;
1336;SDS011;662;48.814;9.318;2023-04-15T15:47:17;3.90;;;2.10;;
1336;SDS011;662;48.814;9.318;2023-04-15T15:49:43;2.60;;;2.40;;
1336;SDS011;662;48.814;9.318;2023-04-15T15:52:10;3.03;;;2.37;;
1336;SDS011;662;48.814;9.318;2023-04-15T15:54:36;4.37;;;2.67;;
1336;SDS011;662;48.814;9.318;2023-04-15T15:57:03;4.23;;;2.37;;